createdAt,value
2022-09-18T00:00:33.389Z,6.57
2022-09-18T00:03:01.407Z,4.83
2022-09-18T00:05:29.614Z,9.70
2022-09-18T00:07:57.607Z,5.00
2022-09-18T00:10:25.644Z,7.57
2022-09-18T00:12:54.929Z,7.90
2022-09-18T00:15:23.031Z,7.80
2022-09-18T00:17:50.863Z,6.63
2022-09-18T00:20:18.857Z,6.03
2022-09-18T00:22:47.082Z,8.40
2022-09-18T00:25:15.175Z,7.33
2022-09-18T00:27:43.107Z,5.93
2022-09-18T00:30:13.435Z,6.63
2022-09-18T00:32:41.263Z,6.43
2022-09-18T00:35:09.938Z,6.90
2022-09-18T00:37:37.831Z,6.70
2022-09-18T00:40:06.614Z,6.90
2022-09-18T00:42:34.526Z,6.00
2022-09-18T00:45:03.510Z,4.10
2022-09-18T00:47:35.089Z,5.13
2022-09-18T00:50:10.782Z,8.30
2022-09-18T00:52:48.116Z,8.53
2022-09-18T00:55:17.134Z,3.93
2022-09-18T00:57:50.333Z,7.63
2022-09-18T01:00:18.427Z,5.00
2022-09-18T01:02:48.854Z,4.10
2022-09-18T01:05:20.536Z,6.27
2022-09-18T01:08:05.042Z,10.13
2022-09-18T01:10:44.806Z,7.13
2022-09-18T01:13:19.387Z,7.53
2022-09-18T01:15:53.442Z,7.43
2022-09-18T01:18:30.474Z,8.10
2022-09-18T01:21:14.455Z,2.97
2022-09-18T01:24:21.314Z,9.23
2022-09-18T01:26:57.558Z,8.57
2022-09-18T01:29:36.574Z,7.50
2022-09-18T01:32:09.566Z,5.90
2022-09-18T01:34:45.980Z,7.73
2022-09-18T01:37:19.374Z,8.73
2022-09-18T01:39:54.414Z,5.43
2022-09-18T01:42:25.215Z,5.63
2022-09-18T01:44:57.882Z,5.90
2022-09-18T01:47:31.436Z,6.37
2022-09-18T01:50:01.512Z,7.07
2022-09-18T01:52:34.163Z,7.57
2022-09-18T01:55:06.031Z,7.10
2022-09-18T01:57:38.114Z,3.83
2022-09-18T02:00:10.238Z,8.47
2022-09-18T02:02:43.171Z,6.87
2022-09-18T02:05:19.479Z,7.07
2022-09-18T02:07:53.165Z,6.40
2022-09-18T02:10:25.012Z,6.27
2022-09-18T02:12:54.538Z,6.50
2022-09-18T02:15:27.025Z,5.80
2022-09-18T02:18:01.626Z,8.13
2022-09-18T02:20:31.257Z,9.70
2022-09-18T02:23:03.119Z,6.47
2022-09-18T02:25:34.224Z,5.17
2022-09-18T02:28:03.353Z,7.23
2022-09-18T02:30:33.863Z,3.13
2022-09-18T02:33:02.558Z,6.00
2022-09-18T02:35:46.984Z,5.23
2022-09-18T02:38:24.537Z,6.73
2022-09-18T02:41:00.975Z,5.17
2022-09-18T02:43:38.360Z,3.43
2022-09-18T02:46:16.099Z,3.57
2022-09-18T02:48:55.186Z,4.53
2022-09-18T02:51:31.396Z,5.30
2022-09-18T02:54:07.200Z,6.23
2022-09-18T02:56:40.305Z,4.30
2022-09-18T02:59:13.646Z,9.03
2022-09-18T03:01:45.354Z,5.67
2022-09-18T03:04:15.724Z,3.90
2022-09-18T03:06:43.600Z,3.90
2022-09-18T03:09:11.613Z,8.17
2022-09-18T03:11:39.483Z,4.50
2022-09-18T03:14:07.320Z,2.13
2022-09-18T03:16:37.633Z,4.67
2022-09-18T03:19:06.876Z,2.97
2022-09-18T03:21:35.065Z,3.43
2022-09-18T03:24:03.303Z,7.10
2022-09-18T03:26:31.271Z,4.70
2022-09-18T03:28:59.221Z,5.77
2022-09-18T03:31:27.254Z,2.90
2022-09-18T03:33:55.196Z,5.97
2022-09-18T03:36:24.392Z,4.17
2022-09-18T03:38:52.245Z,3.67
2022-09-18T03:41:20.151Z,7.73
2022-09-18T03:43:48.027Z,4.57
2022-09-18T03:46:22.295Z,3.23
2022-09-18T03:48:50.597Z,4.17
2022-09-18T03:51:19.079Z,4.37
2022-09-18T03:53:51.027Z,5.63
2022-09-18T03:56:19.575Z,5.70
2022-09-18T03:58:47.503Z,4.47
2022-09-18T04:01:15.451Z,6.50
2022-09-18T04:03:43.698Z,4.97
2022-09-18T04:06:12.130Z,6.77
2022-09-18T04:08:41.093Z,5.13
2022-09-18T04:11:10.313Z,5.93
2022-09-18T04:13:38.227Z,8.23
2022-09-18T04:16:07.028Z,5.33
2022-09-18T04:18:35.086Z,5.73
2022-09-18T04:21:03.036Z,8.60
2022-09-18T04:23:30.974Z,3.87
2022-09-18T04:25:58.809Z,3.90
2022-09-18T04:28:28.026Z,3.57
2022-09-18T04:30:56.062Z,5.40
2022-09-18T04:33:23.972Z,5.77
2022-09-18T04:35:51.876Z,5.63
2022-09-18T04:38:27.246Z,4.57
2022-09-18T04:40:56.740Z,5.07
2022-09-18T04:43:25.561Z,3.10
2022-09-18T04:45:55.020Z,7.77
2022-09-18T04:48:23.703Z,4.07
2022-09-18T04:50:51.933Z,5.37
2022-09-18T04:53:20.530Z,5.47
2022-09-18T04:55:49.418Z,6.63
2022-09-18T04:58:18.525Z,5.93
2022-09-18T05:00:48.886Z,5.67
2022-09-18T05:03:19.326Z,4.57
2022-09-18T05:05:48.452Z,5.90
2022-09-18T05:08:16.377Z,4.77
2022-09-18T05:10:44.801Z,4.83
2022-09-18T05:13:12.687Z,7.97
2022-09-18T05:15:40.571Z,6.40
2022-09-18T05:18:11.478Z,5.87
2022-09-18T05:20:41.118Z,6.43
2022-09-18T05:23:09.048Z,9.33
2022-09-18T05:25:36.912Z,6.07
2022-09-18T05:28:05.439Z,7.43
2022-09-18T05:30:33.336Z,8.53
2022-09-18T05:33:02.720Z,5.17
2022-09-18T05:35:32.622Z,10.40
2022-09-18T05:38:02.316Z,8.57
2022-09-18T05:40:34.351Z,4.10
2022-09-18T05:43:02.981Z,5.67
2022-09-18T05:45:31.100Z,7.43
2022-09-18T05:48:00.303Z,3.90
2022-09-18T05:50:29.740Z,10.17
2022-09-18T05:53:00.780Z,7.90
2022-09-18T05:55:31.713Z,6.30
2022-09-18T05:58:01.560Z,4.03
2022-09-18T06:00:31.829Z,3.90
2022-09-18T06:03:01.692Z,6.67
2022-09-18T06:05:31.185Z,5.00
2022-09-18T06:08:01.663Z,4.93
2022-09-18T06:10:30.860Z,10.33
2022-09-18T06:13:02.637Z,7.43
2022-09-18T06:15:30.781Z,3.63
2022-09-18T06:17:58.634Z,4.10
2022-09-18T06:20:26.652Z,4.43
2022-09-18T06:22:54.712Z,4.40
2022-09-18T06:25:23.943Z,4.87
2022-09-18T06:27:58.344Z,12.33
2022-09-18T06:30:26.951Z,6.67
2022-09-18T06:32:56.776Z,5.17
2022-09-18T06:35:24.763Z,6.07
2022-09-18T06:37:52.704Z,6.60
2022-09-18T06:40:20.670Z,9.57
2022-09-18T06:42:49.995Z,6.70
2022-09-18T06:45:17.987Z,4.20
2022-09-18T06:47:45.854Z,5.57
2022-09-18T06:50:13.737Z,7.20
2022-09-18T06:52:41.628Z,5.27
2022-09-18T06:55:10.058Z,6.53
2022-09-18T06:57:37.931Z,6.30
2022-09-18T07:00:09.180Z,5.77
2022-09-18T07:02:37.335Z,7.50
2022-09-18T07:05:05.733Z,9.93
2022-09-18T07:07:33.588Z,11.17
2022-09-18T07:10:03.669Z,9.67
2022-09-18T07:12:34.871Z,8.37
2022-09-18T07:15:02.744Z,7.13
2022-09-18T07:17:31.991Z,4.87
2022-09-18T07:19:59.868Z,7.87
2022-09-18T07:22:28.650Z,5.60
2022-09-18T07:24:56.558Z,4.63
2022-09-18T07:27:24.387Z,8.03
2022-09-18T07:29:52.293Z,8.40
2022-09-18T07:32:22.566Z,6.47
2022-09-18T07:34:52.088Z,5.13
2022-09-18T07:37:20.208Z,8.60
2022-09-18T07:39:48.092Z,8.47
2022-09-18T07:42:16.241Z,2.87
2022-09-18T07:44:44.144Z,5.00
2022-09-18T07:47:12.613Z,7.13
2022-09-18T07:49:40.978Z,6.83
2022-09-18T07:52:10.375Z,5.03
2022-09-18T07:54:38.557Z,4.63
2022-09-18T07:57:06.704Z,6.00
2022-09-18T07:59:34.581Z,4.77
2022-09-18T08:02:02.565Z,4.33
2022-09-18T08:04:30.634Z,4.67
2022-09-18T08:07:03.515Z,5.00
2022-09-18T08:09:32.935Z,4.93
2022-09-18T08:12:00.779Z,5.00
2022-09-18T08:14:29.232Z,3.07
2022-09-18T08:16:58.098Z,5.73
2022-09-18T08:19:26.027Z,5.23
2022-09-18T08:21:53.913Z,5.47
2022-09-18T08:24:21.928Z,4.30
2022-09-18T08:26:51.324Z,4.27
2022-09-18T08:29:19.862Z,5.67
2022-09-18T08:31:48.102Z,6.27
2022-09-18T08:34:16.388Z,2.40
2022-09-18T08:36:44.332Z,3.00
2022-09-18T08:39:13.642Z,2.70
2022-09-18T08:41:58.608Z,2.97
2022-09-18T08:44:29.658Z,3.73
2022-09-18T08:47:03.736Z,2.53
2022-09-18T08:49:35.714Z,1.97
2022-09-18T08:52:10.948Z,3.70
2022-09-18T08:54:49.208Z,1.73
2022-09-18T08:57:25.855Z,4.23
2022-09-18T08:59:57.272Z,4.77
2022-09-18T09:02:38.385Z,5.13
2022-09-18T09:05:11.450Z,5.07
2022-09-18T09:07:55.636Z,4.90
2022-09-18T09:10:41.189Z,4.10
2022-09-18T09:13:31.716Z,4.70
2022-09-18T09:16:05.874Z,2.80
2022-09-18T09:18:42.428Z,2.90
2022-09-18T09:21:20.050Z,3.97
2022-09-18T09:24:04.762Z,5.00
2022-09-18T09:26:34.115Z,3.57
2022-09-18T09:29:07.423Z,3.60
2022-09-18T09:31:39.864Z,4.13
2022-09-18T09:34:16.803Z,4.73
2022-09-18T09:36:47.845Z,4.77
2022-09-18T09:39:21.990Z,4.57
2022-09-18T09:41:56.966Z,5.53
2022-09-18T09:44:35.328Z,2.00
2022-09-18T09:47:16.078Z,4.73
2022-09-18T09:49:56.659Z,4.13
2022-09-18T09:52:30.399Z,4.77
2022-09-18T09:55:02.580Z,5.43
2022-09-18T09:57:39.168Z,6.10
2022-09-18T10:00:17.910Z,3.40
2022-09-18T10:03:08.041Z,4.87
2022-09-18T10:05:40.491Z,4.17
2022-09-18T10:08:15.204Z,3.50
2022-09-18T10:10:50.339Z,5.67
2022-09-18T10:13:22.507Z,5.77
2022-09-18T10:15:54.314Z,3.97
2022-09-18T10:18:26.340Z,3.30
2022-09-18T10:20:59.390Z,3.30
2022-09-18T10:23:33.978Z,6.67
2022-09-18T10:26:02.896Z,2.07
2022-09-18T10:28:31.256Z,5.83
2022-09-18T10:31:02.759Z,7.37
2022-09-18T10:33:37.670Z,4.63
2022-09-18T10:36:15.522Z,5.13
2022-09-18T10:38:43.652Z,2.07
2022-09-18T10:41:23.821Z,5.37
2022-09-18T10:44:09.724Z,2.90
2022-09-18T10:46:50.558Z,4.23
2022-09-18T10:49:21.087Z,4.97
2022-09-18T10:51:49.261Z,6.93
2022-09-18T10:54:19.432Z,5.27
2022-09-18T10:56:47.440Z,6.43
2022-09-18T10:59:33.560Z,3.97
2022-09-18T11:02:06.003Z,3.13
2022-09-18T11:04:35.056Z,3.60
2022-09-18T11:07:07.507Z,3.90
2022-09-18T11:09:40.096Z,4.17
2022-09-18T11:12:16.765Z,4.83
2022-09-18T11:14:47.414Z,6.90
2022-09-18T11:17:25.453Z,5.47
2022-09-18T11:19:55.492Z,4.10
2022-09-18T11:22:42.730Z,3.40
2022-09-18T11:25:22.876Z,3.53
2022-09-18T11:27:52.925Z,3.83
2022-09-18T11:30:25.000Z,5.90
2022-09-18T11:32:58.413Z,4.97
2022-09-18T11:35:29.659Z,6.00
2022-09-18T11:38:00.618Z,3.60
2022-09-18T11:40:32.605Z,3.37
2022-09-18T11:43:05.466Z,4.30
2022-09-18T11:45:46.758Z,2.67
2022-09-18T11:48:28.221Z,3.70
2022-09-18T11:50:58.535Z,4.03
2022-09-18T11:53:30.799Z,3.63
2022-09-18T11:56:04.045Z,3.00
2022-09-18T11:58:39.232Z,5.40
2022-09-18T12:01:19.143Z,3.50
2022-09-18T12:03:54.648Z,6.20
2022-09-18T12:06:29.741Z,4.17
2022-09-18T12:09:03.888Z,4.97
2022-09-18T12:11:37.327Z,4.77
2022-09-18T12:14:15.580Z,3.47
2022-09-18T12:16:47.970Z,3.83
2022-09-18T12:19:21.875Z,4.63
2022-09-18T12:21:58.268Z,2.20
2022-09-18T12:24:27.211Z,4.23
2022-09-18T12:27:09.222Z,3.67
2022-09-18T12:29:50.297Z,2.83
2022-09-18T12:32:40.648Z,5.10
2022-09-18T12:35:21.338Z,4.03
2022-09-18T12:37:59.840Z,4.57
2022-09-18T12:40:38.204Z,2.93
2022-09-18T12:43:42.992Z,2.97
2022-09-18T12:46:36.785Z,5.67
2022-09-18T12:49:25.268Z,6.83
2022-09-18T12:52:07.416Z,4.17
2022-09-18T12:54:52.707Z,5.97
2022-09-18T12:57:40.843Z,6.73
2022-09-18T13:00:12.276Z,5.00
2022-09-18T13:02:51.162Z,5.37
2022-09-18T13:05:25.377Z,2.93
2022-09-18T13:08:00.734Z,3.67
2022-09-18T13:10:33.392Z,5.00
2022-09-18T13:13:06.344Z,4.20
2022-09-18T13:15:39.744Z,3.53
2022-09-18T13:18:20.177Z,4.63
2022-09-18T13:20:48.370Z,6.23
2022-09-18T13:23:21.549Z,3.93
2022-09-18T13:25:51.663Z,4.10
2022-09-18T13:28:23.217Z,3.93
2022-09-18T13:31:24.494Z,4.33
2022-09-18T13:33:56.658Z,5.93
2022-09-18T13:36:29.333Z,9.03
2022-09-18T13:39:02.688Z,4.00
2022-09-18T13:41:46.125Z,9.40
2022-09-18T13:44:21.170Z,5.37
2022-09-18T13:46:50.953Z,4.13
2022-09-18T13:49:31.913Z,4.27
2022-09-18T13:52:28.953Z,6.57
2022-09-18T13:55:38.151Z,4.83
2022-09-18T13:58:58.923Z,5.83
2022-09-18T14:02:02.868Z,6.17
2022-09-18T14:04:50.535Z,3.67
2022-09-18T14:07:57.145Z,2.70
2022-09-18T14:10:33.044Z,2.33
2022-09-18T14:13:39.002Z,5.63
2022-09-18T14:16:14.877Z,7.37
2022-09-18T14:19:06.864Z,2.90
2022-09-18T14:21:40.632Z,2.70
2022-09-18T14:24:39.570Z,3.17
2022-09-18T14:27:31.312Z,2.90
2022-09-18T14:30:01.432Z,3.20
2022-09-18T14:32:29.991Z,3.20
2022-09-18T14:35:24.301Z,5.40
2022-09-18T14:37:52.219Z,4.63
2022-09-18T14:40:22.612Z,2.63
2022-09-18T14:42:52.282Z,3.23
2022-09-18T14:45:26.102Z,4.83
2022-09-18T14:47:55.313Z,4.97
2022-09-18T14:50:30.723Z,3.47
2022-09-18T14:52:59.889Z,4.03
2022-09-18T14:55:34.445Z,2.80
2022-09-18T14:58:08.110Z,2.33
2022-09-18T15:00:38.372Z,3.00
2022-09-18T15:03:10.058Z,2.13
2022-09-18T15:05:38.165Z,2.00
2022-09-18T15:08:14.996Z,1.97
2022-09-18T15:10:47.316Z,2.97
2022-09-18T15:13:18.598Z,4.83
2022-09-18T15:15:47.480Z,1.83
2022-09-18T15:18:20.425Z,3.60
2022-09-18T15:20:50.544Z,4.53
2022-09-18T15:23:26.084Z,1.73
2022-09-18T15:25:57.422Z,1.13
2022-09-18T15:28:30.072Z,2.40
2022-09-18T15:31:03.711Z,2.70
2022-09-18T15:33:34.298Z,1.83
2022-09-18T15:36:04.608Z,2.13
2022-09-18T15:38:40.085Z,2.03
2022-09-18T15:41:24.023Z,2.20
2022-09-18T15:43:53.711Z,2.37
2022-09-18T15:46:29.401Z,2.63
2022-09-18T15:49:00.615Z,5.00
2022-09-18T15:51:30.545Z,1.63
2022-09-18T15:54:07.612Z,2.33
2022-09-18T15:56:36.538Z,2.03
2022-09-18T15:59:08.087Z,4.13
2022-09-18T16:01:40.473Z,2.33
2022-09-18T16:04:18.038Z,3.70
2022-09-18T16:06:53.712Z,3.13
2022-09-18T16:09:40.239Z,4.03
2022-09-18T16:12:34.336Z,3.07
2022-09-18T16:15:16.304Z,3.20
2022-09-18T16:18:01.970Z,1.83
2022-09-18T16:20:41.570Z,1.67
2022-09-18T16:23:20.064Z,5.40
2022-09-18T16:26:02.357Z,1.93
2022-09-18T16:28:32.322Z,1.20
2022-09-18T16:31:01.789Z,1.20
2022-09-18T16:33:32.613Z,0.90
2022-09-18T16:36:03.892Z,1.30
2022-09-18T16:38:32.439Z,1.07
2022-09-18T16:41:00.715Z,2.80
2022-09-18T16:43:28.941Z,0.97
2022-09-18T16:45:56.794Z,2.30
2022-09-18T16:48:26.471Z,1.97
2022-09-18T16:50:54.403Z,1.43
2022-09-18T16:53:22.369Z,4.27
2022-09-18T16:55:54.428Z,1.53
2022-09-18T16:58:23.643Z,2.23
2022-09-18T17:00:51.807Z,4.80
2022-09-18T17:03:20.128Z,2.50
2022-09-18T17:05:49.401Z,1.80
2022-09-18T17:08:17.373Z,3.40
2022-09-18T17:10:45.549Z,5.23
2022-09-18T17:13:13.995Z,1.33
2022-09-18T17:15:42.256Z,1.57
2022-09-18T17:18:10.162Z,2.03
2022-09-18T17:20:38.517Z,1.83
2022-09-18T17:23:08.240Z,1.23
2022-09-18T17:25:36.863Z,1.97
2022-09-18T17:28:04.949Z,2.10
2022-09-18T17:30:32.913Z,3.37
2022-09-18T17:33:00.873Z,2.40
2022-09-18T17:35:28.849Z,2.43
2022-09-18T17:37:56.733Z,1.97
2022-09-18T17:40:28.117Z,3.07
2022-09-18T17:42:56.023Z,2.70
2022-09-18T17:45:23.910Z,3.13
2022-09-18T17:47:53.153Z,1.20
2022-09-18T17:50:22.142Z,1.57
2022-09-18T17:52:50.141Z,1.27
2022-09-18T17:55:18.648Z,2.83
2022-09-18T17:57:49.408Z,2.43
2022-09-18T18:00:17.530Z,3.57
2022-09-18T18:02:45.515Z,2.83
2022-09-18T18:05:13.434Z,4.37
2022-09-18T18:07:41.301Z,2.70
2022-09-18T18:10:09.998Z,3.73
2022-09-18T18:12:37.880Z,3.23
2022-09-18T18:15:08.208Z,3.80
2022-09-18T18:17:36.149Z,2.90
2022-09-18T18:20:05.166Z,2.70
2022-09-18T18:22:33.075Z,2.60
2022-09-18T18:25:01.412Z,3.57
2022-09-18T18:27:29.346Z,3.80
2022-09-18T18:29:57.190Z,4.10
2022-09-18T18:32:26.524Z,5.27
2022-09-18T18:34:55.376Z,2.63
2022-09-18T18:37:23.337Z,2.70
2022-09-18T18:39:51.173Z,3.43
2022-09-18T18:42:19.117Z,3.27
2022-09-18T18:44:47.323Z,4.00
2022-09-18T18:47:17.526Z,3.10
2022-09-18T18:49:47.086Z,3.63
2022-09-18T18:52:14.942Z,2.80
2022-09-18T18:54:42.783Z,3.43
2022-09-18T18:57:11.594Z,4.27
2022-09-18T18:59:40.716Z,4.67
2022-09-18T19:02:10.327Z,6.70
2022-09-18T19:04:40.301Z,4.87
2022-09-18T19:07:10.792Z,4.50
2022-09-18T19:09:38.687Z,7.73
2022-09-18T19:12:06.811Z,5.00
2022-09-18T19:14:37.846Z,2.80
2022-09-18T19:17:05.984Z,3.03
2022-09-18T19:19:33.999Z,3.27
2022-09-18T19:22:02.803Z,3.57
2022-09-18T19:24:32.116Z,2.03
2022-09-18T19:27:00.023Z,2.53
2022-09-18T19:29:29.005Z,2.20
2022-09-18T19:31:57.682Z,3.37
2022-09-18T19:34:26.019Z,1.87
2022-09-18T19:36:54.075Z,3.80
2022-09-18T19:39:24.510Z,2.17
2022-09-18T19:41:59.125Z,2.77
2022-09-18T19:44:31.311Z,2.20
2022-09-18T19:47:02.382Z,2.03
2022-09-18T19:49:33.442Z,2.67
2022-09-18T19:52:03.059Z,2.03
2022-09-18T19:54:31.586Z,3.73
2022-09-18T19:57:00.795Z,5.07
2022-09-18T19:59:28.734Z,5.37
2022-09-18T20:01:57.033Z,4.63
2022-09-18T20:04:25.119Z,2.50
2022-09-18T20:06:52.987Z,2.93
2022-09-18T20:09:21.299Z,2.87
2022-09-18T20:11:49.223Z,4.40
2022-09-18T20:14:18.437Z,2.90
2022-09-18T20:16:46.400Z,4.70
2022-09-18T20:19:14.342Z,3.37
2022-09-18T20:21:42.651Z,2.80
2022-09-18T20:24:10.525Z,2.57
2022-09-18T20:26:38.480Z,1.90
2022-09-18T20:29:06.415Z,2.70
2022-09-18T20:31:36.021Z,3.50
2022-09-18T20:34:04.715Z,4.17
2022-09-18T20:36:32.996Z,3.10
2022-09-18T20:39:01.827Z,3.33
2022-09-18T20:41:29.895Z,4.33
2022-09-18T20:44:01.049Z,5.13
2022-09-18T20:46:29.104Z,4.60
2022-09-18T20:49:00.962Z,3.47
2022-09-18T20:51:34.655Z,1.83
2022-09-18T20:54:03.894Z,3.87
2022-09-18T20:56:33.929Z,3.03
2022-09-18T20:59:04.750Z,2.97
2022-09-18T21:01:37.705Z,7.97
2022-09-18T21:04:08.919Z,5.53
2022-09-18T21:06:37.320Z,2.73
2022-09-18T21:09:07.638Z,2.43
2022-09-18T21:11:38.916Z,3.73
2022-09-18T21:14:08.682Z,3.03
2022-09-18T21:16:40.452Z,2.77
2022-09-18T21:19:11.255Z,4.70
2022-09-18T21:21:39.757Z,5.80
2022-09-18T21:24:08.781Z,3.13
2022-09-18T21:26:38.291Z,1.47
2022-09-18T21:29:09.836Z,2.80
2022-09-18T21:31:38.438Z,2.03
2022-09-18T21:34:07.102Z,2.67
2022-09-18T21:36:38.591Z,3.77
2022-09-18T21:39:07.580Z,2.97
2022-09-18T21:41:38.692Z,3.73
2022-09-18T21:44:08.764Z,2.93
2022-09-18T21:46:38.649Z,6.30
2022-09-18T21:49:08.814Z,1.83
2022-09-18T21:51:40.505Z,4.70
2022-09-18T21:54:14.214Z,3.83
2022-09-18T21:56:42.598Z,5.40
2022-09-18T21:59:11.246Z,4.07
2022-09-18T22:01:39.293Z,4.20
2022-09-18T22:04:08.364Z,4.83
2022-09-18T22:06:40.856Z,4.13
2022-09-18T22:09:11.784Z,4.97
2022-09-18T22:11:40.764Z,6.37
2022-09-18T22:14:11.287Z,6.97
2022-09-18T22:16:39.793Z,4.40
2022-09-18T22:19:09.183Z,6.10
2022-09-18T22:21:40.478Z,9.00
2022-09-18T22:24:10.410Z,7.00
2022-09-18T22:26:40.937Z,9.03
2022-09-18T22:29:14.258Z,5.60
2022-09-18T22:31:42.189Z,7.87
2022-09-18T22:34:10.124Z,9.57
2022-09-18T22:36:39.372Z,6.90
2022-09-18T22:39:07.266Z,5.17
2022-09-18T22:41:37.176Z,6.10
2022-09-18T22:44:06.207Z,4.93
2022-09-18T22:46:34.745Z,6.03
2022-09-18T22:49:03.071Z,6.20
2022-09-18T22:51:30.995Z,11.80
2022-09-18T22:54:02.646Z,10.27
2022-09-18T22:56:32.345Z,5.27
2022-09-18T22:59:02.112Z,7.93
2022-09-18T23:01:32.927Z,14.40
2022-09-18T23:04:03.148Z,8.10
2022-09-18T23:06:33.347Z,7.37
2022-09-18T23:09:04.607Z,8.27
2022-09-18T23:11:34.174Z,8.20
2022-09-18T23:14:04.171Z,8.93
2022-09-18T23:16:35.259Z,15.40
2022-09-18T23:19:06.260Z,9.20
2022-09-18T23:21:35.835Z,7.07
2022-09-18T23:24:09.067Z,14.70
2022-09-18T23:26:39.239Z,12.57
2022-09-18T23:29:08.838Z,11.70
2022-09-18T23:31:38.602Z,9.67
2022-09-18T23:34:11.881Z,9.27
2022-09-18T23:36:42.314Z,11.93
2022-09-18T23:39:15.374Z,8.83
2022-09-18T23:41:43.856Z,13.10
2022-09-18T23:44:13.929Z,13.50
2022-09-18T23:46:42.732Z,10.53
2022-09-18T23:49:12.142Z,13.60
2022-09-18T23:51:42.751Z,5.23
2022-09-18T23:54:16.531Z,10.17
2022-09-18T23:56:45.344Z,9.93
2022-09-18T23:59:14.495Z,9.30
